Time;durP1;ratioP1;P1;durP2;ratioP2;P2;SDS_P1;SDS_P2;PMS_P1;PMS_P2;Temp;Humidity;BMP_temperature;BMP_pressure;BME280_temperature;BME280_humidity;BME280_pressure;Samples;Min_cycle;Max_cycle;Signal;HPM_P1;HPM_P2
2024/01/26 00:01:15;;;;;;;1.98;1.60;;;;;;;;;;4938739;29;20027;-61
2024/01/26 00:03:40;;;;;;;2.35;1.10;;;;;;;;;;4939695;29;20031;-61
2024/01/26 00:06:06;;;;;;;3.65;1.30;;;;;;;;;;4936457;29;20048;-60
2024/01/26 00:08:31;;;;;;;2.47;1.73;;;;;;;;;;4936614;29;20590;-61
2024/01/26 00:10:57;;;;;;;1.52;0.88;;;;;;;;;;4937272;29;20043;-61
2024/01/26 00:13:23;;;;;;;2.70;1.20;;;;;;;;;;4938369;29;20040;-61
2024/01/26 00:15:49;;;;;;;2.85;1.10;;;;;;;;;;4937116;29;20052;-61
2024/01/26 00:18:15;;;;;;;2.15;1.60;;;;;;;;;;4937442;29;20482;-61
2024/01/26 00:20:40;;;;;;;2.50;1.73;;;;;;;;;;4939091;29;20147;-60
2024/01/26 00:23:06;;;;;;;2.75;1.13;;;;;;;;;;4937576;29;20028;-61
2024/01/26 00:25:31;;;;;;;3.88;1.48;;;;;;;;;;4939004;29;20487;-61
2024/01/26 00:27:57;;;;;;;1.63;1.10;;;;;;;;;;4935895;29;20039;-60
2024/01/26 00:30:23;;;;;;;2.45;0.98;;;;;;;;;;4937774;29;20510;-61
2024/01/26 00:32:48;;;;;;;1.42;1.33;;;;;;;;;;4938360;29;20060;-61
2024/01/26 00:35:14;;;;;;;1.88;1.40;;;;;;;;;;4933446;29;20044;-61
2024/01/26 00:37:40;;;;;;;2.47;1.10;;;;;;;;;;4935999;29;20028;-61
2024/01/26 00:40:07;;;;;;;2.70;1.90;;;;;;;;;;4938559;29;20024;-61
2024/01/26 00:42:32;;;;;;;3.28;2.03;;;;;;;;;;4935321;29;20093;-60
2024/01/26 00:44:58;;;;;;;2.78;1.42;;;;;;;;;;4936535;29;20527;-61
2024/01/26 00:47:23;;;;;;;2.97;1.25;;;;;;;;;;4934668;29;20035;-61
2024/01/26 00:49:48;;;;;;;1.83;0.95;;;;;;;;;;4936935;29;20063;-61
2024/01/26 00:52:14;;;;;;;1.85;1.20;;;;;;;;;;4937847;29;20063;-61
2024/01/26 00:54:39;;;;;;;2.10;1.13;;;;;;;;;;4936609;29;20054;-61
2024/01/26 00:57:05;;;;;;;2.15;1.35;;;;;;;;;;4938657;29;20035;-60
2024/01/26 00:59:30;;;;;;;3.53;1.50;;;;;;;;;;4936271;29;20078;-60
2024/01/26 01:01:57;;;;;;;2.28;1.33;;;;;;;;;;4937469;29;20063;-61
2024/01/26 01:04:24;;;;;;;2.53;1.23;;;;;;;;;;4937072;29;20040;-61
2024/01/26 01:06:51;;;;;;;2.10;1.17;;;;;;;;;;4937401;29;20039;-61
2024/01/26 01:09:16;;;;;;;2.42;1.05;;;;;;;;;;4937240;29;20050;-60
2024/01/26 01:11:42;;;;;;;2.17;1.20;;;;;;;;;;4935438;29;20039;-61
2024/01/26 01:14:08;;;;;;;3.22;1.88;;;;;;;;;;4937750;29;20043;-61
2024/01/26 01:16:34;;;;;;;3.25;2.00;;;;;;;;;;4937324;29;20051;-60
2024/01/26 01:18:59;;;;;;;2.85;1.40;;;;;;;;;;4935109;29;20040;-60
2024/01/26 01:21:25;;;;;;;2.17;1.00;;;;;;;;;;4931931;29;20086;-60
2024/01/26 01:23:50;;;;;;;2.80;2.00;;;;;;;;;;4938408;29;20083;-60
2024/01/26 01:26:16;;;;;;;2.92;1.30;;;;;;;;;;4936688;29;20035;-60
2024/01/26 01:28:42;;;;;;;2.92;1.30;;;;;;;;;;4935007;29;20039;-60
2024/01/26 01:31:08;;;;;;;2.78;1.73;;;;;;;;;;4937456;29;20039;-60
2024/01/26 01:33:33;;;;;;;1.30;0.82;;;;;;;;;;4937751;29;20071;-60
2024/01/26 01:36:00;;;;;;;1.33;0.90;;;;;;;;;;4928623;29;20036;-61
2024/01/26 01:38:25;;;;;;;1.80;0.90;;;;;;;;;;4936952;29;20510;-60
2024/01/26 01:40:50;;;;;;;2.35;1.10;;;;;;;;;;4936035;29;20036;-60
2024/01/26 01:43:19;;;;;;;1.50;0.65;;;;;;;;;;4937808;29;20427;-60
2024/01/26 01:45:45;;;;;;;1.38;1.27;;;;;;;;;;4931738;29;20047;-60
2024/01/26 01:48:11;;;;;;;1.60;1.10;;;;;;;;;;4938510;29;20483;-60
2024/01/26 01:50:37;;;;;;;1.23;0.80;;;;;;;;;;4936749;29;20074;-60
2024/01/26 01:53:04;;;;;;;2.30;1.05;;;;;;;;;;4932898;29;20023;-59
2024/01/26 01:55:30;;;;;;;2.97;1.17;;;;;;;;;;4933384;29;20503;-60
2024/01/26 01:57:57;;;;;;;0.85;0.63;;;;;;;;;;4933631;29;20790;-60
2024/01/26 02:00:23;;;;;;;1.83;1.30;;;;;;;;;;4936376;29;20047;-60
2024/01/26 02:02:49;;;;;;;1.45;0.70;;;;;;;;;;4936534;29;20031;-59
2024/01/26 02:05:16;;;;;;;2.03;1.13;;;;;;;;;;4932069;29;20089;-60
2024/01/26 02:07:42;;;;;;;2.10;1.42;;;;;;;;;;4937264;29;20063;-60
2024/01/26 02:10:09;;;;;;;2.42;1.25;;;;;;;;;;4927738;29;20060;-59
2024/01/26 02:12:35;;;;;;;3.63;1.92;;;;;;;;;;4934173;29;20036;-60
2024/01/26 02:15:03;;;;;;;1.60;0.85;;;;;;;;;;4931687;29;20055;-60
2024/01/26 02:17:33;;;;;;;2.03;0.90;;;;;;;;;;4935215;29;20458;-60
2024/01/26 02:19:59;;;;;;;2.38;1.27;;;;;;;;;;4935010;29;20107;-60
2024/01/26 02:22:24;;;;;;;1.95;0.93;;;;;;;;;;4936589;29;20062;-58
2024/01/26 02:24:50;;;;;;;2.50;2.20;;;;;;;;;;4931189;29;20132;-60
2024/01/26 02:27:15;;;;;;;1.70;1.02;;;;;;;;;;4933167;29;20119;-60
2024/01/26 02:29:41;;;;;;;1.58;1.15;;;;;;;;;;4932643;29;20147;-60
2024/01/26 02:32:07;;;;;;;2.78;1.77;;;;;;;;;;4934247;29;20483;-59
2024/01/26 02:34:32;;;;;;;2.47;1.45;;;;;;;;;;4935781;29;20729;-61
2024/01/26 02:36:58;;;;;;;1.98;1.60;;;;;;;;;;4937162;29;20027;-60
2024/01/26 02:39:23;;;;;;;2.45;1.50;;;;;;;;;;4935240;29;20055;-60
2024/01/26 02:41:49;;;;;;;2.33;1.20;;;;;;;;;;4931542;29;20034;-60
2024/01/26 02:44:14;;;;;;;1.65;1.40;;;;;;;;;;4934294;29;20052;-59
2024/01/26 02:46:40;;;;;;;1.40;1.02;;;;;;;;;;4936156;29;20028;-60
2024/01/26 02:49:05;;;;;;;2.10;1.25;;;;;;;;;;4935157;29;20036;-60
2024/01/26 02:51:31;;;;;;;1.30;0.98;;;;;;;;;;4933017;29;20474;-61
2024/01/26 02:53:58;;;;;;;1.80;1.20;;;;;;;;;;4926173;29;20047;-61
2024/01/26 02:56:23;;;;;;;2.28;1.52;;;;;;;;;;4936354;29;20059;-59
2024/01/26 02:58:48;;;;;;;2.00;1.20;;;;;;;;;;4933388;29;20028;-60
2024/01/26 03:01:14;;;;;;;2.08;1.20;;;;;;;;;;4929277;29;20028;-58
2024/01/26 03:03:39;;;;;;;2.10;1.35;;;;;;;;;;4933378;29;20035;-60
2024/01/26 03:06:05;;;;;;;2.83;1.65;;;;;;;;;;4937051;29;20044;-59
2024/01/26 03:08:31;;;;;;;1.60;1.27;;;;;;;;;;4933838;29;20241;-60
2024/01/26 03:10:57;;;;;;;2.08;1.02;;;;;;;;;;4936433;29;20166;-60
2024/01/26 03:13:22;;;;;;;1.58;1.42;;;;;;;;;;4934135;29;20390;-60
2024/01/26 03:15:49;;;;;;;2.30;1.00;;;;;;;;;;4936501;29;20052;-60
2024/01/26 03:18:17;;;;;;;1.95;1.02;;;;;;;;;;4934283;29;20117;-59
2024/01/26 03:20:42;;;;;;;2.17;1.88;;;;;;;;;;4935113;29;20039;-60
2024/01/26 03:23:08;;;;;;;1.70;1.10;;;;;;;;;;4935758;29;20036;-60
2024/01/26 03:25:33;;;;;;;2.03;1.63;;;;;;;;;;4935149;29;20058;-60
2024/01/26 03:27:59;;;;;;;2.58;1.20;;;;;;;;;;4930793;29;20020;-60
2024/01/26 03:30:25;;;;;;;2.20;1.00;;;;;;;;;;4933730;29;20043;-60
2024/01/26 03:32:51;;;;;;;2.72;1.15;;;;;;;;;;4929662;29;20669;-61
2024/01/26 03:35:16;;;;;;;1.95;1.20;;;;;;;;;;4938636;29;20446;-61
2024/01/26 03:37:42;;;;;;;3.47;1.67;;;;;;;;;;4937581;29;20023;-60
2024/01/26 03:40:08;;;;;;;2.63;1.58;;;;;;;;;;4937811;29;20592;-61
2024/01/26 03:42:33;;;;;;;2.85;1.73;;;;;;;;;;4924449;29;20474;-60
2024/01/26 03:45:00;;;;;;;2.75;1.50;;;;;;;;;;4937631;29;20427;-61
2024/01/26 03:47:25;;;;;;;2.35;1.33;;;;;;;;;;4935470;29;20047;-60
2024/01/26 03:49:50;;;;;;;2.03;1.50;;;;;;;;;;4936072;29;20044;-60
2024/01/26 03:52:16;;;;;;;3.33;1.20;;;;;;;;;;4939552;29;20079;-60
2024/01/26 03:54:41;;;;;;;2.42;1.45;;;;;;;;;;4927972;29;20123;-61
2024/01/26 03:57:06;;;;;;;1.30;1.20;;;;;;;;;;4940381;29;20027;-59
2024/01/26 03:59:32;;;;;;;2.35;1.50;;;;;;;;;;4937510;29;20410;-61
2024/01/26 04:01:57;;;;;;;2.65;1.27;;;;;;;;;;4935498;29;20145;-60
2024/01/26 04:04:23;;;;;;;2.20;0.98;;;;;;;;;;4934884;29;20094;-60
2024/01/26 04:06:48;;;;;;;1.88;1.25;;;;;;;;;;4934404;29;20507;-60
2024/01/26 04:09:14;;;;;;;2.33;1.80;;;;;;;;;;4934110;29;20490;-60
2024/01/26 04:11:39;;;;;;;3.60;1.60;;;;;;;;;;4939513;29;20039;-61
2024/01/26 04:14:05;;;;;;;2.83;1.75;;;;;;;;;;4933325;29;20032;-59
2024/01/26 04:16:31;;;;;;;2.97;1.40;;;;;;;;;;4934491;29;20043;-61
2024/01/26 04:18:56;;;;;;;2.22;1.70;;;;;;;;;;4939373;29;20023;-60
2024/01/26 04:21:21;;;;;;;2.15;1.58;;;;;;;;;;4932914;29;20396;-60
2024/01/26 04:23:47;;;;;;;3.03;1.95;;;;;;;;;;4927589;29;20620;-60
2024/01/26 04:26:12;;;;;;;2.72;1.42;;;;;;;;;;4938460;29;20095;-61
2024/01/26 04:28:38;;;;;;;2.38;1.63;;;;;;;;;;4939590;29;20504;-60
2024/01/26 04:31:04;;;;;;;2.22;1.00;;;;;;;;;;4932094;29;20043;-61
2024/01/26 04:33:29;;;;;;;2.75;1.40;;;;;;;;;;4938083;29;20067;-60
2024/01/26 04:35:55;;;;;;;2.88;1.55;;;;;;;;;;4938965;29;20032;-60
2024/01/26 04:38:20;;;;;;;2.08;1.15;;;;;;;;;;4937369;29;20091;-61
2024/01/26 04:40:46;;;;;;;1.83;0.82;;;;;;;;;;4937633;29;20067;-61
2024/01/26 04:43:11;;;;;;;2.08;1.02;;;;;;;;;;4938161;29;20036;-61
2024/01/26 04:45:36;;;;;;;2.45;1.00;;;;;;;;;;4937116;29;20035;-60
2024/01/26 04:48:04;;;;;;;3.78;1.55;;;;;;;;;;4936401;29;20031;-60
2024/01/26 04:50:29;;;;;;;2.15;1.52;;;;;;;;;;4938275;29;20035;-60
2024/01/26 04:52:55;;;;;;;1.48;1.38;;;;;;;;;;4938332;29;20035;-60
2024/01/26 04:55:21;;;;;;;0.90;0.68;;;;;;;;;;4929203;29;20402;-60
2024/01/26 04:57:47;;;;;;;1.00;0.80;;;;;;;;;;4932809;29;20024;-60
2024/01/26 05:00:13;;;;;;;1.10;0.98;;;;;;;;;;4936641;29;20035;-60
2024/01/26 05:02:39;;;;;;;3.20;1.25;;;;;;;;;;4936291;29;20035;-60
2024/01/26 05:05:04;;;;;;;1.40;1.27;;;;;;;;;;4937850;29;20044;-60
2024/01/26 05:07:30;;;;;;;2.38;1.77;;;;;;;;;;4934337;29;20048;-60
2024/01/26 05:09:55;;;;;;;3.05;1.50;;;;;;;;;;4935662;29;20107;-60
2024/01/26 05:12:20;;;;;;;2.05;1.10;;;;;;;;;;4935591;29;20063;-60
2024/01/26 05:14:46;;;;;;;2.60;1.33;;;;;;;;;;4937074;28;20524;-60
2024/01/26 05:17:11;;;;;;;2.53;1.17;;;;;;;;;;4936747;29;20055;-60
2024/01/26 05:19:37;;;;;;;3.45;1.42;;;;;;;;;;4933363;29;20044;-60
2024/01/26 05:22:02;;;;;;;2.00;1.75;;;;;;;;;;4935184;29;20355;-60
2024/01/26 05:24:28;;;;;;;2.10;1.75;;;;;;;;;;4929817;29;20811;-60
2024/01/26 05:26:54;;;;;;;2.90;1.30;;;;;;;;;;4936047;29;20095;-61
2024/01/26 05:29:19;;;;;;;3.53;1.50;;;;;;;;;;4938048;29;20570;-61
2024/01/26 05:31:45;;;;;;;1.92;1.73;;;;;;;;;;4933954;29;20031;-61
2024/01/26 05:34:10;;;;;;;1.95;1.20;;;;;;;;;;4935134;29;20510;-60
2024/01/26 05:36:41;;;;;;;2.58;1.98;;;;;;;;;;4936882;29;20023;-60
2024/01/26 05:39:06;;;;;;;2.45;1.30;;;;;;;;;;4937225;29;20040;-61
2024/01/26 05:41:32;;;;;;;1.77;1.10;;;;;;;;;;4936758;29;20525;-60
2024/01/26 05:43:57;;;;;;;3.25;2.95;;;;;;;;;;4936358;29;20023;-61
2024/01/26 05:46:22;;;;;;;3.60;2.42;;;;;;;;;;4938049;29;20054;-60
2024/01/26 05:48:48;;;;;;;3.92;3.63;;;;;;;;;;4934329;29;20497;-60
2024/01/26 05:51:13;;;;;;;3.88;2.60;;;;;;;;;;4937885;29;20474;-60
2024/01/26 05:53:39;;;;;;;2.20;1.95;;;;;;;;;;4930241;29;20686;-61
2024/01/26 05:56:04;;;;;;;2.65;1.63;;;;;;;;;;4935756;29;20550;-60
2024/01/26 05:58:31;;;;;;;4.65;2.08;;;;;;;;;;4937090;29;20090;-60
2024/01/26 06:00:57;;;;;;;2.92;2.45;;;;;;;;;;4935417;29;20047;-61
2024/01/26 06:03:22;;;;;;;3.53;1.83;;;;;;;;;;4935555;29;20036;-60
2024/01/26 06:05:47;;;;;;;2.50;2.08;;;;;;;;;;4932598;29;20038;-60
2024/01/26 06:08:13;;;;;;;3.28;1.70;;;;;;;;;;4932679;29;20038;-59
2024/01/26 06:10:38;;;;;;;2.58;2.05;;;;;;;;;;4931784;29;20114;-60
2024/01/26 06:13:03;;;;;;;2.88;2.50;;;;;;;;;;4934178;29;20035;-60
2024/01/26 06:15:29;;;;;;;3.05;2.55;;;;;;;;;;4932919;29;20047;-60
2024/01/26 06:17:54;;;;;;;2.42;2.28;;;;;;;;;;4937297;29;20339;-59
2024/01/26 06:20:20;;;;;;;1.67;1.02;;;;;;;;;;4931921;29;20122;-59
2024/01/26 06:22:45;;;;;;;2.63;2.33;;;;;;;;;;4932902;29;20047;-60
2024/01/26 06:25:11;;;;;;;1.95;1.08;;;;;;;;;;4932883;29;20040;-60
2024/01/26 06:27:37;;;;;;;2.75;1.15;;;;;;;;;;4932611;29;20032;-61
2024/01/26 06:30:03;;;;;;;0.95;0.65;;;;;;;;;;4931835;29;20409;-57
2024/01/26 06:32:29;;;;;;;2.17;1.60;;;;;;;;;;4935358;29;20031;-58
2024/01/26 06:34:54;;;;;;;2.10;1.48;;;;;;;;;;4934640;29;20134;-59
2024/01/26 06:37:21;;;;;;;1.55;1.10;;;;;;;;;;4927661;29;20123;-59
2024/01/26 06:39:46;;;;;;;1.73;1.23;;;;;;;;;;4934205;29;20032;-58
2024/01/26 06:42:12;;;;;;;1.80;0.95;;;;;;;;;;4930160;29;20034;-60
2024/01/26 06:44:38;;;;;;;2.97;1.67;;;;;;;;;;4933377;29;20095;-59
2024/01/26 06:47:03;;;;;;;1.98;0.77;;;;;;;;;;4934686;29;20035;-60
2024/01/26 06:49:28;;;;;;;2.65;1.10;;;;;;;;;;4932014;29;20043;-60
2024/01/26 06:51:54;;;;;;;1.85;0.82;;;;;;;;;;4928541;29;20036;-59
2024/01/26 06:54:19;;;;;;;1.20;1.00;;;;;;;;;;4929544;29;20046;-60
2024/01/26 06:56:45;;;;;;;2.70;1.27;;;;;;;;;;4936671;29;20035;-59
2024/01/26 06:59:10;;;;;;;1.40;0.90;;;;;;;;;;4936270;29;20048;-60
2024/01/26 07:01:35;;;;;;;2.30;0.90;;;;;;;;;;4925402;29;20034;-59
2024/01/26 07:04:01;;;;;;;1.90;1.05;;;;;;;;;;4935677;29;20070;-60
2024/01/26 07:06:26;;;;;;;3.15;1.25;;;;;;;;;;4934733;29;20020;-60
2024/01/26 07:08:52;;;;;;;2.75;1.52;;;;;;;;;;4937118;29;20023;-59
2024/01/26 07:11:19;;;;;;;1.50;0.63;;;;;;;;;;4936257;29;20525;-61
2024/01/26 07:13:44;;;;;;;0.98;0.88;;;;;;;;;;4936895;29;20036;-55
2024/01/26 07:16:10;;;;;;;0.90;0.90;;;;;;;;;;4938669;29;20113;-59
2024/01/26 07:18:35;;;;;;;2.45;1.48;;;;;;;;;;4938205;29;20036;-58
2024/01/26 07:21:08;;;;;;;1.45;0.70;;;;;;;;;;4935047;29;20036;-60
2024/01/26 07:23:34;;;;;;;3.65;2.63;;;;;;;;;;4934759;29;20023;-59
2024/01/26 07:26:00;;;;;;;1.10;0.88;;;;;;;;;;4939461;29;20032;-60
2024/01/26 07:28:26;;;;;;;2.70;1.27;;;;;;;;;;4940553;29;20035;-59
2024/01/26 07:30:52;;;;;;;5.70;2.72;;;;;;;;;;4938546;29;20039;-60
2024/01/26 07:33:17;;;;;;;5.07;2.80;;;;;;;;;;4939804;29;20027;-59
2024/01/26 07:35:42;;;;;;;5.97;3.45;;;;;;;;;;4937895;29;20036;-60
2024/01/26 07:38:08;;;;;;;5.95;3.63;;;;;;;;;;4939119;29;20030;-59
2024/01/26 07:40:33;;;;;;;5.82;2.63;;;;;;;;;;4937786;29;20035;-59
2024/01/26 07:42:58;;;;;;;5.53;3.38;;;;;;;;;;4938902;29;20090;-60
2024/01/26 07:45:24;;;;;;;5.75;3.38;;;;;;;;;;4938353;29;20134;-60
2024/01/26 07:47:50;;;;;;;4.57;2.33;;;;;;;;;;4935489;29;20034;-60
2024/01/26 07:50:15;;;;;;;5.22;2.70;;;;;;;;;;4936393;29;20436;-59
2024/01/26 07:52:41;;;;;;;5.53;2.78;;;;;;;;;;4937387;29;20058;-59
2024/01/26 07:55:09;;;;;;;3.63;2.00;;;;;;;;;;4938914;29;20040;-59
2024/01/26 07:57:34;;;;;;;2.55;1.70;;;;;;;;;;4933359;29;20028;-60
2024/01/26 08:00:00;;;;;;;3.70;2.15;;;;;;;;;;4936573;29;20046;-59
2024/01/26 08:02:25;;;;;;;3.70;1.80;;;;;;;;;;4929575;29;20032;-58
2024/01/26 08:04:53;;;;;;;3.47;2.10;;;;;;;;;;4935912;29;20502;-59
2024/01/26 08:07:19;;;;;;;4.35;2.50;;;;;;;;;;4934809;29;20039;-59
2024/01/26 08:09:44;;;;;;;5.15;3.33;;;;;;;;;;4935536;29;20043;-59
2024/01/26 08:12:10;;;;;;;6.05;3.35;;;;;;;;;;4936509;29;20039;-59
2024/01/26 08:14:35;;;;;;;5.47;2.63;;;;;;;;;;4937031;29;20688;-59
2024/01/26 08:17:01;;;;;;;4.03;2.47;;;;;;;;;;4930320;29;20082;-58
2024/01/26 08:19:26;;;;;;;2.72;2.25;;;;;;;;;;4928476;29;20047;-58
2024/01/26 08:21:52;;;;;;;3.75;2.47;;;;;;;;;;4933064;29;20039;-59
2024/01/26 08:24:17;;;;;;;3.35;2.33;;;;;;;;;;4931691;29;20050;-59
2024/01/26 08:26:42;;;;;;;5.30;2.90;;;;;;;;;;4928099;29;20036;-59
2024/01/26 08:29:08;;;;;;;3.47;1.95;;;;;;;;;;4933091;29;20043;-58
2024/01/26 08:31:34;;;;;;;2.97;1.85;;;;;;;;;;4928956;29;20024;-60
2024/01/26 08:33:59;;;;;;;5.50;1.98;;;;;;;;;;4931886;28;20038;-59
2024/01/26 08:36:25;;;;;;;3.92;2.85;;;;;;;;;;4932604;29;20039;-59
2024/01/26 08:38:53;;;;;;;7.05;2.58;;;;;;;;;;4930040;29;20086;-59
2024/01/26 08:41:18;;;;;;;3.10;1.95;;;;;;;;;;4934678;29;20035;-58
2024/01/26 08:43:44;;;;;;;1.75;1.23;;;;;;;;;;4934583;29;20042;-59
2024/01/26 08:46:10;;;;;;;2.38;1.38;;;;;;;;;;4936831;29;20048;-59
2024/01/26 08:48:35;;;;;;;2.70;1.40;;;;;;;;;;4933972;29;20031;-59
2024/01/26 08:51:00;;;;;;;3.50;1.85;;;;;;;;;;4937382;29;20455;-60
2024/01/26 08:53:26;;;;;;;1.83;0.98;;;;;;;;;;4937840;29;20087;-60
2024/01/26 08:55:51;;;;;;;3.58;1.25;;;;;;;;;;4935991;29;20039;-59
2024/01/26 08:58:17;;;;;;;2.03;1.23;;;;;;;;;;4930453;29;20031;-59
2024/01/26 09:00:42;;;;;;;2.88;1.13;;;;;;;;;;4932255;29;20090;-59
2024/01/26 09:03:08;;;;;;;2.28;1.92;;;;;;;;;;4931677;29;20118;-58
2024/01/26 09:05:34;;;;;;;2.95;1.65;;;;;;;;;;4932160;29;20036;-59
2024/01/26 09:07:59;;;;;;;2.50;1.50;;;;;;;;;;4936231;29;20036;-59
2024/01/26 09:10:26;;;;;;;3.08;1.85;;;;;;;;;;4936921;29;20044;-59
2024/01/26 09:12:52;;;;;;;2.92;1.23;;;;;;;;;;4933243;29;20036;-59
2024/01/26 09:15:17;;;;;;;1.48;0.85;;;;;;;;;;4936437;29;20083;-59
2024/01/26 09:17:43;;;;;;;1.25;1.15;;;;;;;;;;4934857;29;20553;-59
2024/01/26 09:20:09;;;;;;;3.00;1.15;;;;;;;;;;4930715;29;20340;-59
2024/01/26 09:22:34;;;;;;;2.60;1.02;;;;;;;;;;4936301;29;20059;-59
2024/01/26 09:25:00;;;;;;;1.70;1.08;;;;;;;;;;4936255;29;20040;-58
2024/01/26 09:27:26;;;;;;;2.72;0.95;;;;;;;;;;4936471;29;20474;-60
2024/01/26 09:29:52;;;;;;;1.83;1.08;;;;;;;;;;4936154;29;20039;-59
2024/01/26 09:32:17;;;;;;;1.42;0.68;;;;;;;;;;4936237;29;20095;-59
2024/01/26 09:34:44;;;;;;;2.97;1.17;;;;;;;;;;4928074;29;20047;-60
2024/01/26 09:37:09;;;;;;;2.10;1.60;;;;;;;;;;4937254;29;20054;-59
2024/01/26 09:39:35;;;;;;;2.75;1.35;;;;;;;;;;4929885;29;20044;-60
2024/01/26 09:42:00;;;;;;;1.42;1.00;;;;;;;;;;4938485;29;20024;-59
2024/01/26 09:44:26;;;;;;;4.90;1.42;;;;;;;;;;4934599;29;20199;-59
2024/01/26 09:46:51;;;;;;;1.85;1.75;;;;;;;;;;4938086;29;20387;-59
2024/01/26 09:49:17;;;;;;;2.00;0.88;;;;;;;;;;4937485;29;20102;-59
2024/01/26 09:51:43;;;;;;;2.42;1.67;;;;;;;;;;4937036;29;20075;-60
2024/01/26 09:54:10;;;;;;;1.90;1.25;;;;;;;;;;4928545;29;20050;-60
2024/01/26 09:56:39;;;;;;;1.42;1.33;;;;;;;;;;4934126;29;20023;-59
2024/01/26 09:59:07;;;;;;;1.73;1.23;;;;;;;;;;4931542;29;20074;-59
2024/01/26 10:01:33;;;;;;;2.40;0.90;;;;;;;;;;4937491;29;20935;-59
2024/01/26 10:03:59;;;;;;;1.92;0.80;;;;;;;;;;4934822;29;20646;-60
2024/01/26 10:06:24;;;;;;;3.70;2.20;;;;;;;;;;4933624;29;20035;-58
2024/01/26 10:08:50;;;;;;;1.55;1.02;;;;;;;;;;4934742;29;20031;-60
2024/01/26 10:11:15;;;;;;;1.80;0.98;;;;;;;;;;4936427;29;20047;-60
2024/01/26 10:13:40;;;;;;;1.88;1.60;;;;;;;;;;4934955;29;20040;-60
2024/01/26 10:16:11;;;;;;;1.77;0.98;;;;;;;;;;4933795;29;20606;-60
2024/01/26 10:18:44;;;;;;;2.38;1.17;;;;;;;;;;4934890;29;20023;-60
2024/01/26 10:21:11;;;;;;;1.35;1.15;;;;;;;;;;4931859;29;20817;-60
2024/01/26 10:23:36;;;;;;;1.75;0.88;;;;;;;;;;4930178;29;20027;-60
2024/01/26 10:26:02;;;;;;;1.98;1.17;;;;;;;;;;4932588;29;20095;-60
2024/01/26 10:28:28;;;;;;;3.08;1.13;;;;;;;;;;4930770;29;20537;-60
2024/01/26 10:30:53;;;;;;;2.75;1.60;;;;;;;;;;4933287;29;20040;-61
2024/01/26 10:33:22;;;;;;;2.05;0.85;;;;;;;;;;4934564;29;20036;-61
2024/01/26 10:35:50;;;;;;;1.90;0.93;;;;;;;;;;4931286;29;20046;-60
2024/01/26 10:38:16;;;;;;;2.00;1.90;;;;;;;;;;4930197;29;20036;-61
2024/01/26 10:40:45;;;;;;;3.45;2.33;;;;;;;;;;4929152;29;20042;-60
2024/01/26 10:43:11;;;;;;;1.83;1.02;;;;;;;;;;4933540;29;21047;-61
2024/01/26 10:45:41;;;;;;;2.47;1.63;;;;;;;;;;4932324;29;20134;-61
2024/01/26 10:48:09;;;;;;;3.38;1.20;;;;;;;;;;4934627;29;20023;-61
2024/01/26 10:50:36;;;;;;;2.58;0.80;;;;;;;;;;4930285;29;20064;-61
2024/01/26 10:53:04;;;;;;;2.38;1.35;;;;;;;;;;4935734;29;20386;-61
2024/01/26 10:55:30;;;;;;;1.90;1.15;;;;;;;;;;4932877;29;20100;-61
2024/01/26 10:57:56;;;;;;;1.67;0.82;;;;;;;;;;4933298;29;23551;-61
2024/01/26 11:00:21;;;;;;;3.25;1.70;;;;;;;;;;4934650;29;20093;-61
2024/01/26 11:02:48;;;;;;;2.15;1.52;;;;;;;;;;4936094;29;20039;-61
2024/01/26 11:05:13;;;;;;;1.52;1.27;;;;;;;;;;4934923;29;20078;-61
2024/01/26 11:07:39;;;;;;;1.85;1.75;;;;;;;;;;4935127;29;20470;-61
2024/01/26 11:10:10;;;;;;;4.63;0.98;;;;;;;;;;4937049;29;20464;-60
2024/01/26 11:12:36;;;;;;;2.90;1.38;;;;;;;;;;4937229;29;20102;-61
2024/01/26 11:15:03;;;;;;;1.70;0.80;;;;;;;;;;4938350;29;20087;-60
2024/01/26 11:17:29;;;;;;;2.05;1.17;;;;;;;;;;4933551;29;20046;-61
2024/01/26 11:20:00;;;;;;;1.75;1.05;;;;;;;;;;4933707;29;20043;-60
2024/01/26 11:22:32;;;;;;;3.78;1.67;;;;;;;;;;4934405;29;20766;-61
2024/01/26 11:24:58;;;;;;;3.67;1.33;;;;;;;;;;4930256;29;20044;-61
2024/01/26 11:27:24;;;;;;;2.22;1.33;;;;;;;;;;4935536;29;20034;-61
2024/01/26 11:29:49;;;;;;;1.48;1.00;;;;;;;;;;4930770;29;20043;-61
2024/01/26 11:32:19;;;;;;;1.92;0.60;;;;;;;;;;4935014;29;20123;-61
2024/01/26 11:34:58;;;;;;;1.42;1.05;;;;;;;;;;4932497;29;20036;-61
2024/01/26 11:37:27;;;;;;;2.13;1.20;;;;;;;;;;4936851;29;20027;-60
2024/01/26 11:39:54;;;;;;;1.42;1.15;;;;;;;;;;4936858;29;20130;-61
2024/01/26 11:42:19;;;;;;;1.63;1.15;;;;;;;;;;4937430;29;20031;-61
2024/01/26 11:45:12;;;;;;;1.10;0.47;;;;;;;;;;4939822;29;20514;-61
2024/01/26 11:47:41;;;;;;;1.38;1.27;;;;;;;;;;4939611;29;20042;-61
2024/01/26 11:50:08;;;;;;;1.67;0.50;;;;;;;;;;4934669;29;20059;-61
2024/01/26 11:52:37;;;;;;;1.30;0.75;;;;;;;;;;4930925;29;20036;-61
2024/01/26 11:55:05;;;;;;;2.55;0.55;;;;;;;;;;4933476;28;20066;-61
2024/01/26 11:57:32;;;;;;;1.27;0.77;;;;;;;;;;4939492;29;20027;-60
2024/01/26 11:59:59;;;;;;;2.10;1.45;;;;;;;;;;4937031;29;20036;-61
2024/01/26 12:02:25;;;;;;;2.92;1.95;;;;;;;;;;4938375;29;20055;-61
2024/01/26 12:04:50;;;;;;;2.33;1.83;;;;;;;;;;4938012;29;20526;-61
2024/01/26 12:07:16;;;;;;;4.50;3.65;;;;;;;;;;4938409;29;20392;-61
2024/01/26 12:09:42;;;;;;;4.30;0.73;;;;;;;;;;4935309;29;20090;-61
2024/01/26 12:12:09;;;;;;;2.28;0.60;;;;;;;;;;4936843;29;20038;-61
2024/01/26 12:14:34;;;;;;;1.05;0.73;;;;;;;;;;4934473;29;20035;-62
2024/01/26 12:17:03;;;;;;;1.52;1.42;;;;;;;;;;4933214;29;20107;-62
2024/01/26 12:19:29;;;;;;;1.60;1.05;;;;;;;;;;4937204;29;20035;-61
2024/01/26 12:21:56;;;;;;;1.73;0.80;;;;;;;;;;4938724;29;20060;-61
2024/01/26 12:24:22;;;;;;;1.95;1.30;;;;;;;;;;4938422;29;20046;-60
2024/01/26 12:26:47;;;;;;;7.47;1.52;;;;;;;;;;4936614;29;20398;-61
2024/01/26 12:29:13;;;;;;;2.20;0.70;;;;;;;;;;4934057;29;20102;-61
2024/01/26 12:31:38;;;;;;;1.25;1.10;;;;;;;;;;4930767;29;20031;-61
2024/01/26 12:34:12;;;;;;;1.38;1.23;;;;;;;;;;4930064;29;20047;-60
2024/01/26 12:36:37;;;;;;;1.58;0.65;;;;;;;;;;4930969;29;20162;-61
2024/01/26 12:39:02;;;;;;;1.15;0.40;;;;;;;;;;4933406;29;20131;-60
2024/01/26 12:41:28;;;;;;;1.13;0.82;;;;;;;;;;4936676;29;20489;-60
2024/01/26 12:43:54;;;;;;;2.72;1.13;;;;;;;;;;4931473;29;20368;-60
2024/01/26 12:46:20;;;;;;;1.02;0.93;;;;;;;;;;4934406;29;20028;-60
2024/01/26 12:48:45;;;;;;;1.80;1.23;;;;;;;;;;4937879;29;20042;-59
2024/01/26 12:51:11;;;;;;;2.47;0.63;;;;;;;;;;4937655;29;20035;-60
2024/01/26 12:53:36;;;;;;;2.15;1.02;;;;;;;;;;4935647;29;20024;-60
2024/01/26 12:56:02;;;;;;;1.13;0.80;;;;;;;;;;4937941;29;20494;-61
2024/01/26 12:58:27;;;;;;;1.20;0.60;;;;;;;;;;4935572;29;20032;-61
2024/01/26 13:00:52;;;;;;;1.20;0.85;;;;;;;;;;4936358;29;20031;-61
2024/01/26 13:03:18;;;;;;;2.65;1.02;;;;;;;;;;4935668;29;20128;-61
2024/01/26 13:05:44;;;;;;;1.55;0.73;;;;;;;;;;4932250;28;20044;-61
2024/01/26 13:08:10;;;;;;;1.73;1.15;;;;;;;;;;4933364;29;20024;-61
2024/01/26 13:10:36;;;;;;;1.60;1.13;;;;;;;;;;4936430;29;20044;-61
2024/01/26 13:13:01;;;;;;;1.85;0.52;;;;;;;;;;4934338;29;20035;-61
2024/01/26 13:15:27;;;;;;;1.35;0.52;;;;;;;;;;4936440;29;20055;-60
2024/01/26 13:17:52;;;;;;;1.45;0.63;;;;;;;;;;4936718;29;20501;-61
2024/01/26 13:20:19;;;;;;;0.95;0.80;;;;;;;;;;4936744;29;20734;-61
2024/01/26 13:22:47;;;;;;;1.00;0.68;;;;;;;;;;4935538;29;20051;-61
2024/01/26 13:25:13;;;;;;;2.08;0.73;;;;;;;;;;4935435;29;20126;-61
2024/01/26 13:27:39;;;;;;;1.40;0.43;;;;;;;;;;4933633;29;20175;-61
2024/01/26 13:30:05;;;;;;;0.73;0.57;;;;;;;;;;4937067;29;20040;-61
2024/01/26 13:32:30;;;;;;;2.22;0.47;;;;;;;;;;4936319;29;20031;-61
2024/01/26 13:34:55;;;;;;;1.40;0.98;;;;;;;;;;4935155;29;20054;-61
2024/01/26 13:37:21;;;;;;;1.15;0.28;;;;;;;;;;4937062;29;20020;-61
2024/01/26 13:39:46;;;;;;;1.73;0.85;;;;;;;;;;4937808;29;20134;-60
2024/01/26 13:42:12;;;;;;;0.70;0.32;;;;;;;;;;4937144;29;20027;-61
2024/01/26 13:44:38;;;;;;;1.50;0.75;;;;;;;;;;4936031;29;20048;-60
2024/01/26 13:47:03;;;;;;;2.33;0.57;;;;;;;;;;4934207;29;20122;-60
2024/01/26 13:49:29;;;;;;;1.42;0.55;;;;;;;;;;4929923;29;20516;-61
2024/01/26 13:51:54;;;;;;;1.52;1.00;;;;;;;;;;4932736;29;20417;-60
2024/01/26 13:54:20;;;;;;;3.08;1.23;;;;;;;;;;4934595;29;20099;-60
2024/01/26 13:56:51;;;;;;;0.80;0.70;;;;;;;;;;4933840;29;20043;-60
2024/01/26 13:59:17;;;;;;;2.55;1.05;;;;;;;;;;4936813;29;20126;-60
2024/01/26 14:01:43;;;;;;;2.63;0.82;;;;;;;;;;4935444;29;20044;-61
2024/01/26 14:04:08;;;;;;;1.15;0.45;;;;;;;;;;4935052;29;20042;-60
2024/01/26 14:06:34;;;;;;;1.55;0.77;;;;;;;;;;4936698;29;20067;-61
2024/01/26 14:08:59;;;;;;;0.80;0.50;;;;;;;;;;4936034;29;20055;-61
2024/01/26 14:11:25;;;;;;;0.93;0.88;;;;;;;;;;4933564;29;20035;-60
2024/01/26 14:13:50;;;;;;;1.42;0.63;;;;;;;;;;4932943;29;20064;-59
2024/01/26 14:16:15;;;;;;;3.47;2.00;;;;;;;;;;4932058;29;20059;-61
2024/01/26 14:18:41;;;;;;;4.78;1.45;;;;;;;;;;4929574;29;20058;-61
2024/01/26 14:21:07;;;;;;;2.33;1.00;;;;;;;;;;4931265;29;20130;-60
2024/01/26 14:23:32;;;;;;;1.15;0.95;;;;;;;;;;4933297;29;20023;-61
2024/01/26 14:25:58;;;;;;;1.40;0.85;;;;;;;;;;4931557;29;20043;-61
2024/01/26 14:28:26;;;;;;;1.25;0.55;;;;;;;;;;4932826;29;20027;-61
2024/01/26 14:30:51;;;;;;;1.48;0.82;;;;;;;;;;4930402;29;20036;-61
2024/01/26 14:33:17;;;;;;;0.50;0.25;;;;;;;;;;4928068;29;20031;-61
2024/01/26 14:35:43;;;;;;;2.20;0.50;;;;;;;;;;4926523;29;20055;-61